AAL550 KSAN-KLAS
Flight info
| Callsign | AAL550 |
|---|---|
| Flight time | 0h 48m |
| Altitude | 29000 |
| Route | PADRZ2 CHKNN SEBBY YELAH MISEN RNDRZ4 |
| Aircraft | MD88/M-SDFGIRWY/C |
Departure
| Time | 2026-05-03 22:18 |
|---|---|
| Airport | San Diego International Airport (KSAN) |
Arrival
| Time | 2026-05-03 23:06 |
|---|---|
| Airport | Harry Reid International Airport (KLAS) |
| Time | Latitude | Longitude | Altitude | Speed | Heading |
|---|---|---|---|---|---|
| 2026-05-03 21:45 | 32.73306 | -117.20064 | 19 ft | 0 kts | 275° |
| 2026-05-03 22:06 | 32.73305 | -117.20052 | 18 ft | 2 kts | 275° |
| 2026-05-03 22:06 | 32.73304 | -117.20034 | 18 ft | 2 kts | 275° |
| 2026-05-03 22:06 | 32.73302 | -117.20016 | 18 ft | 2 kts | 275° |
| 2026-05-03 22:06 | 32.73301 | -117.19998 | 18 ft | 2 kts | 275° |
| 2026-05-03 22:07 | 32.73295 | -117.19982 | 19 ft | 2 kts | 316° |
| 2026-05-03 22:07 | 32.73285 | -117.19974 | 18 ft | 0 kts | 342° |
| 2026-05-03 22:07 | 32.73278 | -117.19973 | 19 ft | 1 kts | 346° |
| 2026-05-03 22:10 | 32.73355 | -117.19982 | 19 ft | 13 kts | 10° |
| 2026-05-03 22:10 | 32.73448 | -117.19955 | 19 ft | 13 kts | 29° |
| 2026-05-03 22:10 | 32.73470 | -117.19861 | 19 ft | 13 kts | 106° |
| 2026-05-03 22:10 | 32.73441 | -117.19743 | 20 ft | 15 kts | 106° |
| 2026-05-03 22:11 | 32.73408 | -117.19605 | 20 ft | 18 kts | 106° |
| 2026-05-03 22:11 | 32.73371 | -117.19453 | 22 ft | 19 kts | 106° |
| 2026-05-03 22:11 | 32.73333 | -117.19295 | 22 ft | 19 kts | 107° |
| 2026-05-03 22:11 | 32.73297 | -117.19148 | 21 ft | 17 kts | 106° |
| 2026-05-03 22:12 | 32.73264 | -117.19012 | 21 ft | 16 kts | 105° |
| 2026-05-03 22:12 | 32.73232 | -117.18882 | 20 ft | 16 kts | 106° |
| 2026-05-03 22:12 | 32.73201 | -117.18752 | 19 ft | 16 kts | 106° |
| 2026-05-03 22:12 | 32.73167 | -117.18612 | 19 ft | 18 kts | 106° |
| 2026-05-03 22:13 | 32.73128 | -117.18453 | 19 ft | 21 kts | 106° |
| 2026-05-03 22:13 | 32.73087 | -117.18280 | 19 ft | 23 kts | 106° |
| 2026-05-03 22:13 | 32.73040 | -117.18088 | 19 ft | 24 kts | 105° |
| 2026-05-03 22:13 | 32.72995 | -117.17902 | 21 ft | 21 kts | 106° |
| 2026-05-03 22:14 | 32.72958 | -117.17750 | 23 ft | 11 kts | 105° |
| 2026-05-03 22:14 | 32.72952 | -117.17691 | 24 ft | 1 kts | 79° |
| 2026-05-03 22:16 | 32.72953 | -117.17684 | 24 ft | 3 kts | 79° |
| 2026-05-03 22:16 | 32.72977 | -117.17616 | 25 ft | 12 kts | 39° |
| 2026-05-03 22:16 | 32.73036 | -117.17649 | 26 ft | 6 kts | 287° |
| 2026-05-03 22:16 | 32.73040 | -117.17664 | 26 ft | 0 kts | 287° |
| 2026-05-03 22:17 | 32.73056 | -117.17728 | 24 ft | 29 kts | 286° |
| 2026-05-03 22:17 | 32.73176 | -117.18221 | 19 ft | 93 kts | 286° |
| 2026-05-03 22:18 | 32.73406 | -117.19174 | 22 ft | 144 kts | 286° |
| 2026-05-03 22:18 | 32.73724 | -117.20473 | 207 ft | 173 kts | 286° |
| 2026-05-03 22:18 | 32.74037 | -117.21868 | 778 ft | 182 kts | 284° |
| 2026-05-03 22:18 | 32.74345 | -117.23252 | 1757 ft | 164 kts | 285° |
| 2026-05-03 22:19 | 32.74680 | -117.24426 | 2459 ft | 160 kts | 289° |
| 2026-05-03 22:19 | 32.75203 | -117.25801 | 2568 ft | 196 kts | 298° |
| 2026-05-03 22:19 | 32.75919 | -117.27014 | 3669 ft | 169 kts | 311° |
| 2026-05-03 22:19 | 32.76713 | -117.28073 | 3953 ft | 191 kts | 306° |
| 2026-05-03 22:20 | 32.77632 | -117.29408 | 4058 ft | 224 kts | 307° |
| 2026-05-03 22:20 | 32.78664 | -117.30943 | 4290 ft | 250 kts | 306° |
| 2026-05-03 22:20 | 32.79795 | -117.32607 | 4853 ft | 262 kts | 307° |
| 2026-05-03 22:20 | 32.80920 | -117.34245 | 5647 ft | 263 kts | 307° |
| 2026-05-03 22:21 | 32.82096 | -117.35967 | 6294 ft | 270 kts | 306° |
| 2026-05-03 22:21 | 32.83275 | -117.37695 | 7035 ft | 274 kts | 305° |
| 2026-05-03 22:21 | 32.84500 | -117.39503 | 7501 ft | 287 kts | 306° |
| 2026-05-03 22:21 | 32.85740 | -117.41328 | 8312 ft | 286 kts | 305° |
| 2026-05-03 22:22 | 32.86998 | -117.43179 | 8986 ft | 290 kts | 305° |
| 2026-05-03 22:22 | 32.88265 | -117.45039 | 9720 ft | 291 kts | 304° |
| 2026-05-03 22:22 | 32.89539 | -117.46924 | 10230 ft | 301 kts | 304° |
| 2026-05-03 22:22 | 32.90906 | -117.48949 | 10249 ft | 327 kts | 304° |
| 2026-05-03 22:23 | 32.92371 | -117.51112 | 10530 ft | 342 kts | 305° |
| 2026-05-03 22:23 | 32.93838 | -117.53335 | 11312 ft | 340 kts | 302° |
| 2026-05-03 22:23 | 32.95281 | -117.55585 | 11985 ft | 343 kts | 303° |
| 2026-05-03 22:23 | 32.96719 | -117.57829 | 12628 ft | 344 kts | 303° |
| 2026-05-03 22:24 | 32.98184 | -117.60120 | 13148 ft | 349 kts | 303° |
| 2026-05-03 22:24 | 32.99650 | -117.62407 | 13853 ft | 347 kts | 303° |
| 2026-05-03 22:24 | 33.01101 | -117.64672 | 14468 ft | 348 kts | 302° |
| 2026-05-03 22:24 | 33.02580 | -117.66981 | 15045 ft | 350 kts | 302° |
| 2026-05-03 22:25 | 33.04052 | -117.69277 | 15666 ft | 349 kts | 301° |
| 2026-05-03 22:25 | 33.05523 | -117.71572 | 16302 ft | 347 kts | 301° |
| 2026-05-03 22:25 | 33.07140 | -117.73745 | 16678 ft | 358 kts | 308° |
| 2026-05-03 22:25 | 33.09019 | -117.75716 | 17318 ft | 360 kts | 312° |
| 2026-05-03 22:26 | 33.10914 | -117.77618 | 17786 ft | 361 kts | 311° |
| 2026-05-03 22:26 | 33.12828 | -117.79546 | 18205 ft | 364 kts | 311° |
| 2026-05-03 22:26 | 33.14777 | -117.81509 | 18779 ft | 362 kts | 311° |
| 2026-05-03 22:26 | 33.16707 | -117.83466 | 19127 ft | 367 kts | 311° |
| 2026-05-03 22:27 | 33.18649 | -117.85425 | 19673 ft | 365 kts | 310° |
| 2026-05-03 22:27 | 33.20575 | -117.87381 | 19980 ft | 371 kts | 312° |
| 2026-05-03 22:27 | 33.22566 | -117.89339 | 20397 ft | 372 kts | 311° |
| 2026-05-03 22:27 | 33.24565 | -117.91299 | 20981 ft | 369 kts | 311° |
| 2026-05-03 22:28 | 33.26564 | -117.93262 | 21273 ft | 373 kts | 311° |
| 2026-05-03 22:28 | 33.28549 | -117.95201 | 21743 ft | 373 kts | 311° |
| 2026-05-03 22:28 | 33.30587 | -117.97202 | 22051 ft | 376 kts | 311° |
| 2026-05-03 22:28 | 33.32601 | -117.99171 | 22425 ft | 377 kts | 311° |
| 2026-05-03 22:29 | 33.34627 | -118.01157 | 22651 ft | 382 kts | 311° |
| 2026-05-03 22:29 | 33.36664 | -118.03149 | 23141 ft | 379 kts | 310° |
| 2026-05-03 22:29 | 33.38721 | -118.05160 | 23417 ft | 383 kts | 310° |
| 2026-05-03 22:29 | 33.40789 | -118.07185 | 23758 ft | 384 kts | 310° |
| 2026-05-03 22:30 | 33.42851 | -118.09197 | 24181 ft | 383 kts | 310° |
| 2026-05-03 22:30 | 33.44934 | -118.11232 | 24377 ft | 387 kts | 310° |
| 2026-05-03 22:30 | 33.47006 | -118.13253 | 24706 ft | 389 kts | 310° |
| 2026-05-03 22:30 | 33.49128 | -118.15324 | 25145 ft | 387 kts | 310° |
| 2026-05-03 22:31 | 33.51220 | -118.17365 | 25390 ft | 390 kts | 310° |
| 2026-05-03 22:31 | 33.53331 | -118.19430 | 25579 ft | 393 kts | 310° |
| 2026-05-03 22:31 | 33.55429 | -118.21469 | 26035 ft | 391 kts | 310° |
| 2026-05-03 22:31 | 33.57664 | -118.23400 | 26145 ft | 405 kts | 316° |
| 2026-05-03 22:32 | 33.60137 | -118.25094 | 26599 ft | 409 kts | 321° |
| 2026-05-03 22:32 | 33.62753 | -118.26555 | 26637 ft | 420 kts | 324° |
| 2026-05-03 22:32 | 33.65392 | -118.27997 | 27173 ft | 414 kts | 323° |
| 2026-05-03 22:32 | 33.68024 | -118.29444 | 27254 ft | 419 kts | 323° |
| 2026-05-03 22:33 | 33.70849 | -118.30543 | 27654 ft | 437 kts | 339° |
| 2026-05-03 22:33 | 33.73936 | -118.30718 | 28062 ft | 458 kts | 354° |
| 2026-05-03 22:33 | 33.77148 | -118.29844 | 28264 ft | 484 kts | 12° |
| 2026-05-03 22:33 | 33.80130 | -118.27914 | 28506 ft | 503 kts | 30° |
| 2026-05-03 22:34 | 33.82727 | -118.24980 | 28755 ft | 516 kts | 47° |
| 2026-05-03 22:34 | 33.84678 | -118.21321 | 28929 ft | 523 kts | 59° |
| 2026-05-03 22:34 | 33.86449 | -118.17555 | 28974 ft | 522 kts | 57° |
| 2026-05-03 22:35 | 33.90329 | -118.10106 | 28970 ft | 531 kts | 53° |
| 2026-05-03 22:35 | 33.94443 | -118.02708 | 28965 ft | 533 kts | 52° |
| 2026-05-03 22:36 | 33.98629 | -117.95412 | 28975 ft | 530 kts | 52° |
| 2026-05-03 22:36 | 34.02861 | -117.88164 | 28974 ft | 530 kts | 51° |
| 2026-05-03 22:37 | 34.07130 | -117.80904 | 28972 ft | 530 kts | 51° |
| 2026-05-03 22:37 | 34.11586 | -117.73872 | 28974 ft | 526 kts | 46° |
| 2026-05-03 22:38 | 34.16214 | -117.67098 | 28967 ft | 525 kts | 46° |
| 2026-05-03 22:38 | 34.20859 | -117.60250 | 28980 ft | 526 kts | 47° |
| 2026-05-03 22:39 | 34.25503 | -117.53382 | 28981 ft | 526 kts | 46° |
| 2026-05-03 22:39 | 34.30109 | -117.46573 | 28979 ft | 525 kts | 46° |
| 2026-05-03 22:40 | 34.34739 | -117.39732 | 28984 ft | 526 kts | 46° |
| 2026-05-03 22:40 | 34.39377 | -117.32877 | 28963 ft | 525 kts | 46° |
| 2026-05-03 22:41 | 34.44020 | -117.26021 | 28977 ft | 526 kts | 47° |
| 2026-05-03 22:41 | 34.48629 | -117.19218 | 28955 ft | 526 kts | 47° |
| 2026-05-03 22:42 | 34.53301 | -117.12328 | 28930 ft | 526 kts | 46° |
| 2026-05-03 22:42 | 34.57947 | -117.05482 | 28914 ft | 526 kts | 46° |
| 2026-05-03 22:43 | 34.62563 | -116.98681 | 28922 ft | 524 kts | 46° |
| 2026-05-03 22:43 | 34.67155 | -116.91824 | 28922 ft | 524 kts | 46° |
| 2026-05-03 22:44 | 34.71770 | -116.84909 | 28918 ft | 525 kts | 47° |
| 2026-05-03 22:44 | 34.76365 | -116.78019 | 28938 ft | 526 kts | 47° |
| 2026-05-03 22:45 | 34.80959 | -116.71124 | 28933 ft | 525 kts | 47° |
| 2026-05-03 22:45 | 34.85625 | -116.64386 | 28885 ft | 520 kts | 39° |
| 2026-05-03 22:46 | 34.91138 | -116.58804 | 28853 ft | 512 kts | 31° |
| 2026-05-03 22:46 | 34.96744 | -116.53439 | 28844 ft | 513 kts | 31° |
| 2026-05-03 22:47 | 35.02344 | -116.48038 | 28829 ft | 514 kts | 33° |
| 2026-05-03 22:47 | 35.07916 | -116.42632 | 28825 ft | 514 kts | 33° |
| 2026-05-03 22:48 | 35.13313 | -116.36880 | 28802 ft | 509 kts | 38° |
| 2026-05-03 22:48 | 35.18027 | -116.30626 | 28790 ft | 496 kts | 43° |
| 2026-05-03 22:49 | 35.22739 | -116.24387 | 28817 ft | 503 kts | 42° |
| 2026-05-03 22:49 | 35.27377 | -116.17996 | 28818 ft | 506 kts | 44° |
| 2026-05-03 22:50 | 35.32019 | -116.11533 | 28821 ft | 505 kts | 45° |
| 2026-05-03 22:50 | 35.36673 | -116.05147 | 28815 ft | 504 kts | 44° |
| 2026-05-03 22:51 | 35.41305 | -115.98779 | 28832 ft | 503 kts | 44° |
| 2026-05-03 22:51 | 35.45977 | -115.92351 | 28857 ft | 506 kts | 45° |
| 2026-05-03 22:52 | 35.50582 | -115.85975 | 27715 ft | 501 kts | 44° |
| 2026-05-03 22:52 | 35.52895 | -115.82773 | 26741 ft | 502 kts | 44° |
| 2026-05-03 22:52 | 35.55186 | -115.79614 | 25774 ft | 502 kts | 45° |
| 2026-05-03 22:52 | 35.57507 | -115.76409 | 24779 ft | 501 kts | 46° |
| 2026-05-03 22:53 | 35.59796 | -115.73264 | 23847 ft | 496 kts | 46° |
| 2026-05-03 22:53 | 35.62091 | -115.70174 | 23404 ft | 481 kts | 46° |
| 2026-05-03 22:53 | 35.64292 | -115.67197 | 22930 ft | 468 kts | 46° |
| 2026-05-03 22:53 | 35.66456 | -115.64268 | 22503 ft | 454 kts | 46° |
| 2026-05-03 22:54 | 35.68531 | -115.61456 | 22103 ft | 442 kts | 47° |
| 2026-05-03 22:54 | 35.70578 | -115.58680 | 21683 ft | 429 kts | 47° |
| 2026-05-03 22:54 | 35.72635 | -115.56115 | 21326 ft | 416 kts | 39° |
| 2026-05-03 22:54 | 35.74880 | -115.53995 | 20836 ft | 410 kts | 31° |
| 2026-05-03 22:55 | 35.77353 | -115.52248 | 20202 ft | 407 kts | 27° |
| 2026-05-03 22:55 | 35.79798 | -115.50583 | 19573 ft | 403 kts | 28° |
| 2026-05-03 22:55 | 35.82254 | -115.48901 | 18932 ft | 399 kts | 28° |
| 2026-05-03 22:55 | 35.84633 | -115.47259 | 18306 ft | 394 kts | 29° |
| 2026-05-03 22:56 | 35.87010 | -115.45615 | 17680 ft | 389 kts | 30° |
| 2026-05-03 22:56 | 35.89331 | -115.43998 | 17045 ft | 384 kts | 30° |
| 2026-05-03 22:56 | 35.91645 | -115.42381 | 16568 ft | 374 kts | 30° |
| 2026-05-03 22:56 | 35.93884 | -115.40825 | 16011 ft | 368 kts | 30° |
| 2026-05-03 22:57 | 35.96101 | -115.39281 | 15486 ft | 363 kts | 30° |
| 2026-05-03 22:57 | 35.98283 | -115.37763 | 14996 ft | 359 kts | 30° |
| 2026-05-03 22:57 | 36.00273 | -115.35970 | 14498 ft | 354 kts | 50° |
| 2026-05-03 22:57 | 36.01568 | -115.33433 | 14011 ft | 344 kts | 73° |
| 2026-05-03 22:58 | 36.02004 | -115.30626 | 13371 ft | 333 kts | 95° |
| 2026-05-03 22:58 | 36.01767 | -115.27834 | 12759 ft | 327 kts | 100° |
| 2026-05-03 22:58 | 36.01526 | -115.25056 | 12107 ft | 327 kts | 100° |
| 2026-05-03 22:58 | 36.01304 | -115.22275 | 11478 ft | 326 kts | 99° |
| 2026-05-03 22:59 | 36.01098 | -115.19501 | 10857 ft | 325 kts | 99° |
| 2026-05-03 22:59 | 36.00908 | -115.16727 | 10230 ft | 324 kts | 99° |
| 2026-05-03 22:59 | 36.00729 | -115.13984 | 9615 ft | 323 kts | 99° |
| 2026-05-03 22:59 | 36.00559 | -115.11245 | 9031 ft | 321 kts | 98° |
| 2026-05-03 23:00 | 36.00386 | -115.08546 | 8770 ft | 308 kts | 98° |
| 2026-05-03 23:00 | 36.00222 | -115.05954 | 8562 ft | 294 kts | 99° |
| 2026-05-03 23:00 | 36.00067 | -115.03517 | 8369 ft | 282 kts | 99° |
| 2026-05-03 23:00 | 35.99922 | -115.01148 | 8185 ft | 270 kts | 97° |
| 2026-05-03 23:01 | 35.99899 | -114.98865 | 7942 ft | 264 kts | 96° |
| 2026-05-03 23:01 | 35.99889 | -114.96634 | 7714 ft | 256 kts | 96° |
| 2026-05-03 23:01 | 35.99853 | -114.94482 | 7512 ft | 246 kts | 98° |
| 2026-05-03 23:01 | 36.00181 | -114.92421 | 7256 ft | 251 kts | 67° |
| 2026-05-03 23:02 | 36.01312 | -114.90791 | 6987 ft | 256 kts | 36° |
| 2026-05-03 23:02 | 36.02908 | -114.89835 | 6696 ft | 257 kts | 16° |
| 2026-05-03 23:02 | 36.04655 | -114.89784 | 6382 ft | 254 kts | 342° |
| 2026-05-03 23:02 | 36.06223 | -114.90758 | 5981 ft | 251 kts | 316° |
| 2026-05-03 23:03 | 36.07239 | -114.92442 | 5583 ft | 242 kts | 284° |
| 2026-05-03 23:03 | 36.07479 | -114.94434 | 5222 ft | 233 kts | 264° |
| 2026-05-03 23:03 | 36.07451 | -114.96416 | 4778 ft | 239 kts | 262° |
| 2026-05-03 23:03 | 36.07417 | -114.98478 | 4431 ft | 233 kts | 263° |
| 2026-05-03 23:04 | 36.07393 | -115.00465 | 3859 ft | 232 kts | 263° |
| 2026-05-03 23:04 | 36.07379 | -115.02345 | 3573 ft | 212 kts | 262° |
| 2026-05-03 23:04 | 36.07377 | -115.04097 | 3327 ft | 194 kts | 262° |
| 2026-05-03 23:04 | 36.07371 | -115.05688 | 3112 ft | 175 kts | 264° |
| 2026-05-03 23:05 | 36.07370 | -115.07105 | 2872 ft | 159 kts | 262° |
| 2026-05-03 23:05 | 36.07374 | -115.08428 | 2663 ft | 149 kts | 260° |
| 2026-05-03 23:05 | 36.07371 | -115.09741 | 2443 ft | 159 kts | 263° |
| 2026-05-03 23:05 | 36.07372 | -115.11134 | 2304 ft | 163 kts | 262° |
| 2026-05-03 23:06 | 36.07367 | -115.12533 | 2116 ft | 161 kts | 263° |
| 2026-05-03 23:06 | 36.07365 | -115.13845 | 2097 ft | 136 kts | 267° |
| 2026-05-03 23:06 | 36.07364 | -115.14554 | 2117 ft | 69 kts | 270° |
| 2026-05-03 23:06 | 36.07420 | -115.14938 | 2130 ft | 29 kts | 295° |
| 2026-05-03 23:07 | 36.07520 | -115.15124 | 2135 ft | 23 kts | 322° |
| 2026-05-03 23:07 | 36.07655 | -115.15207 | 2136 ft | 20 kts | 335° |
| 2026-05-03 23:07 | 36.07777 | -115.15258 | 2135 ft | 14 kts | 21° |
| 2026-05-03 23:07 | 36.07805 | -115.15152 | 2131 ft | 14 kts | 92° |
| 2026-05-03 23:08 | 36.07799 | -115.15026 | 2126 ft | 15 kts | 95° |
| 2026-05-03 23:08 | 36.07789 | -115.14871 | 2121 ft | 20 kts | 95° |
| 2026-05-03 23:08 | 36.07776 | -115.14688 | 2117 ft | 21 kts | 95° |
| 2026-05-03 23:08 | 36.07767 | -115.14504 | 2111 ft | 21 kts | 96° |
| 2026-05-03 23:09 | 36.07754 | -115.14332 | 2105 ft | 20 kts | 92° |
| 2026-05-03 23:09 | 36.07768 | -115.14171 | 2101 ft | 15 kts | 36° |
| 2026-05-03 23:09 | 36.07886 | -115.14157 | 2099 ft | 19 kts | 359° |
| 2026-05-03 23:09 | 36.08018 | -115.14159 | 2096 ft | 18 kts | 360° |
| 2026-05-03 23:10 | 36.08134 | -115.14159 | 2092 ft | 15 kts | 0° |
| 2026-05-03 23:10 | 36.08241 | -115.14159 | 2089 ft | 14 kts | 0° |
| 2026-05-03 23:10 | 36.08337 | -115.14145 | 2087 ft | 13 kts | 9° |
| 2026-05-03 23:10 | 36.08412 | -115.14095 | 2084 ft | 12 kts | 46° |
| 2026-05-03 23:11 | 36.08458 | -115.14023 | 2082 ft | 7 kts | 68° |
| 2026-05-03 23:11 | 36.08465 | -115.13949 | 2080 ft | 10 kts | 91° |
| 2026-05-03 23:11 | 36.08492 | -115.13905 | 2078 ft | 5 kts | 4° |
| 2026-05-03 23:11 | 36.08520 | -115.13904 | 2077 ft | 1 kts | 1° |
| 2026-05-03 23:12 | 36.08526 | -115.13903 | 2077 ft | 0 kts | 1° |